メインページ
METAR-TAF:

METAR-TAF

空港 :

ローラン・ギャロス空港

サン=ドニ, レユニオン

緯度: 20-53S, 経度: 055-31E, 海抜: 21m

現時点の気象観測

当レポートは39分前の20:00(UTC)に作成
東/南東の風 15kt
気温 22°C
湿度 69%
気圧 1024 hPa
視程10km以上
1,500メートル以下は雲なし、積乱雲なし

METAR: FMEE 172000Z AUTO 12015KT CAVOK 22/16 Q1024 NOSIG

時間: 00:39 (20:39 UTC)

予報

当レポートは3時間39分前の17:00(UTC)に作成
予報は17日の 18時(UTC)から 18日の 24時(UTC)まで有効
東/南東の風 14kt
視程10km以上
高度4000ftの雲はほとんどない
18日の 05時(UTC)から 18日の 07時(UTC)まで徐々に
東/南東の風 22kt、最大32ktの突風を伴う
18日の 15時(UTC)から 18日の 17時(UTC)まで徐々に
東/南東の風 13kt

TAF: FMEE 171700Z 1718/1824 11014KT 9999 FEW040 BECMG 1805/1807 11022G32KT BECMG 1815/1817 11013KT

4,000以上の空港の気象観測と天気予報(METAR報とTAF報)

利用可能な観測所は地図上に黄色い丸と赤い丸で示す。

丸の上にカーソルを重ねると観測所名を参照できる。

次にクリックすると気象観測と天気予報を参照できる。

マップの切り替え:黒色「×」印の緑ボタンをクリックして拡大、「-」印の緑ボタンをクリックして縮小、緑色の三角印をクリックして隣りの地図に切り替え


METAR-TAF: